sensor_id;sensor_type;location;lat;lon;timestamp;pressure;altitude;pressure_sealevel;temperature;humidity
19676;BME280;39539;52.202;9.876;2023-01-16T00:02:01;98981.31;;;4.42;100.00
19676;BME280;39539;52.202;9.876;2023-01-16T00:04:27;98986.16;;;4.45;100.00
19676;BME280;39539;52.202;9.876;2023-01-16T00:06:53;98988.56;;;4.47;100.00
19676;BME280;39539;52.202;9.876;2023-01-16T00:09:18;98972.81;;;4.40;99.46
19676;BME280;39539;52.202;9.876;2023-01-16T00:11:44;98975.44;;;4.40;99.93
19676;BME280;39539;52.202;9.876;2023-01-16T00:14:10;98970.78;;;4.42;99.66
19676;BME280;39539;52.202;9.876;2023-01-16T00:16:35;98971.38;;;4.44;99.83
19676;BME280;39539;52.202;9.876;2023-01-16T00:19:01;98967.31;;;4.48;99.71
19676;BME280;39539;52.202;9.876;2023-01-16T00:21:27;98982.63;;;4.58;99.25
19676;BME280;39539;52.202;9.876;2023-01-16T00:23:53;98972.34;;;4.57;100.00
19676;BME280;39539;52.202;9.876;2023-01-16T00:26:19;98965.44;;;4.56;99.69
19676;BME280;39539;52.202;9.876;2023-01-16T00:28:44;98956.56;;;4.57;100.00
19676;BME280;39539;52.202;9.876;2023-01-16T00:31:10;98953.53;;;4.53;99.99
19676;BME280;39539;52.202;9.876;2023-01-16T00:33:36;98952.91;;;4.58;99.28
19676;BME280;39539;52.202;9.876;2023-01-16T00:36:02;98940.16;;;4.55;99.55
19676;BME280;39539;52.202;9.876;2023-01-16T00:38:28;98937.75;;;4.53;99.07
19676;BME280;39539;52.202;9.876;2023-01-16T00:40:53;98925.00;;;4.50;99.46
19676;BME280;39539;52.202;9.876;2023-01-16T00:43:19;98927.44;;;4.52;98.41
19676;BME280;39539;52.202;9.876;2023-01-16T00:45:44;98912.91;;;4.42;98.37
19676;BME280;39539;52.202;9.876;2023-01-16T00:48:10;98921.06;;;4.34;98.63
19676;BME280;39539;52.202;9.876;2023-01-16T00:50:35;98908.59;;;4.16;100.00
19676;BME280;39539;52.202;9.876;2023-01-16T00:53:01;98903.19;;;3.98;100.00
19676;BME280;39539;52.202;9.876;2023-01-16T00:55:26;98904.44;;;3.82;100.00
19676;BME280;39539;52.202;9.876;2023-01-16T00:57:51;98883.66;;;3.74;100.00
19676;BME280;39539;52.202;9.876;2023-01-16T01:00:17;98898.81;;;3.85;100.00
19676;BME280;39539;52.202;9.876;2023-01-16T01:02:44;98904.22;;;3.97;100.00
19676;BME280;39539;52.202;9.876;2023-01-16T01:05:11;98910.81;;;4.13;100.00
19676;BME280;39539;52.202;9.876;2023-01-16T01:07:36;98896.03;;;4.18;100.00
19676;BME280;39539;52.202;9.876;2023-01-16T01:10:01;98906.53;;;4.25;100.00
19676;BME280;39539;52.202;9.876;2023-01-16T01:12:27;98915.00;;;4.34;100.00
19676;BME280;39539;52.202;9.876;2023-01-16T01:14:52;98908.09;;;4.33;100.00
19676;BME280;39539;52.202;9.876;2023-01-16T01:17:17;98906.69;;;4.37;100.00
19676;BME280;39539;52.202;9.876;2023-01-16T01:19:43;98902.22;;;4.37;100.00
19676;BME280;39539;52.202;9.876;2023-01-16T01:22:08;98894.31;;;4.37;100.00
19676;BME280;39539;52.202;9.876;2023-01-16T01:24:33;98902.25;;;4.31;100.00
19676;BME280;39539;52.202;9.876;2023-01-16T01:26:59;98894.97;;;4.26;100.00
19676;BME280;39539;52.202;9.876;2023-01-16T01:29:24;98896.44;;;4.22;100.00
19676;BME280;39539;52.202;9.876;2023-01-16T01:31:49;98898.41;;;4.26;100.00
19676;BME280;39539;52.202;9.876;2023-01-16T01:34:15;98875.69;;;4.00;100.00
19676;BME280;39539;52.202;9.876;2023-01-16T01:36:40;98893.28;;;4.00;100.00
19676;BME280;39539;52.202;9.876;2023-01-16T01:39:05;98874.72;;;3.88;100.00
19676;BME280;39539;52.202;9.876;2023-01-16T01:41:31;98879.78;;;3.83;100.00
19676;BME280;39539;52.202;9.876;2023-01-16T01:43:56;98872.53;;;3.78;100.00
19676;BME280;39539;52.202;9.876;2023-01-16T01:46:26;98884.03;;;3.91;100.00
19676;BME280;39539;52.202;9.876;2023-01-16T01:51:42;98877.75;;;3.92;100.00
19676;BME280;39539;52.202;9.876;2023-01-16T01:54:16;98871.44;;;3.99;100.00
19676;BME280;39539;52.202;9.876;2023-01-16T01:56:46;98869.41;;;4.01;100.00
19676;BME280;39539;52.202;9.876;2023-01-16T01:59:20;98863.34;;;4.01;100.00
19676;BME280;39539;52.202;9.876;2023-01-16T02:01:47;98854.66;;;4.00;100.00
19676;BME280;39539;52.202;9.876;2023-01-16T02:04:15;98853.63;;;4.01;100.00
19676;BME280;39539;52.202;9.876;2023-01-16T02:06:43;98854.66;;;4.00;100.00
19676;BME280;39539;52.202;9.876;2023-01-16T02:09:10;98853.63;;;4.01;100.00
19676;BME280;39539;52.202;9.876;2023-01-16T02:11:48;98843.13;;;4.01;100.00
19676;BME280;39539;52.202;9.876;2023-01-16T02:14:16;98829.78;;;4.03;100.00
19676;BME280;39539;52.202;9.876;2023-01-16T02:16:42;98841.66;;;4.12;100.00
19676;BME280;39539;52.202;9.876;2023-01-16T02:33:29;98826.00;;;4.31;100.00
19676;BME280;39539;52.202;9.876;2023-01-16T02:36:16;98818.09;;;4.31;100.00
19676;BME280;39539;52.202;9.876;2023-01-16T02:41:51;98813.81;;;4.36;100.00
19676;BME280;39539;52.202;9.876;2023-01-16T02:47:39;98795.72;;;4.15;100.00
19676;BME280;39539;52.202;9.876;2023-01-16T02:55:41;98776.69;;;3.81;100.00
19676;BME280;39539;52.202;9.876;2023-01-16T02:58:09;98766.63;;;3.78;100.00
19676;BME280;39539;52.202;9.876;2023-01-16T03:00:36;98776.50;;;3.82;100.00
19676;BME280;39539;52.202;9.876;2023-01-16T03:03:02;98759.47;;;3.92;100.00
19676;BME280;39539;52.202;9.876;2023-01-16T03:05:33;98771.34;;;4.01;100.00
19676;BME280;39539;52.202;9.876;2023-01-16T03:08:40;98771.03;;;4.16;100.00
19676;BME280;39539;52.202;9.876;2023-01-16T03:11:14;98761.94;;;4.18;100.00
19676;BME280;39539;52.202;9.876;2023-01-16T03:22:31;98733.25;;;4.10;100.00
19676;BME280;39539;52.202;9.876;2023-01-16T03:28:06;98736.38;;;4.00;100.00
19676;BME280;39539;52.202;9.876;2023-01-16T03:33:31;98724.09;;;3.88;100.00
19676;BME280;39539;52.202;9.876;2023-01-16T03:36:05;98719.78;;;4.00;100.00
19676;BME280;39539;52.202;9.876;2023-01-16T03:38:37;98701.94;;;4.09;100.00
19676;BME280;39539;52.202;9.876;2023-01-16T03:41:08;98697.53;;;4.02;100.00
19676;BME280;39539;52.202;9.876;2023-01-16T03:43:37;98699.81;;;3.92;100.00
19676;BME280;39539;52.202;9.876;2023-01-16T03:46:08;98693.53;;;3.93;100.00
19676;BME280;39539;52.202;9.876;2023-01-16T03:48:46;98689.63;;;3.77;100.00
19676;BME280;39539;52.202;9.876;2023-01-16T03:51:19;98687.72;;;3.59;100.00
19676;BME280;39539;52.202;9.876;2023-01-16T03:56:38;98686.75;;;3.47;100.00
19676;BME280;39539;52.202;9.876;2023-01-16T03:59:06;98680.94;;;3.38;100.00
19676;BME280;39539;52.202;9.876;2023-01-16T04:01:37;98684.13;;;3.47;100.00
19676;BME280;39539;52.202;9.876;2023-01-16T04:04:13;98683.06;;;3.55;100.00
19676;BME280;39539;52.202;9.876;2023-01-16T04:06:50;98688.28;;;3.62;100.00
19676;BME280;39539;52.202;9.876;2023-01-16T04:09:23;98674.91;;;3.70;100.00
19676;BME280;39539;52.202;9.876;2023-01-16T04:11:51;98669.41;;;3.78;100.00
19676;BME280;39539;52.202;9.876;2023-01-16T04:14:20;98676.00;;;3.87;100.00
19676;BME280;39539;52.202;9.876;2023-01-16T04:16:47;98671.34;;;3.89;100.00
19676;BME280;39539;52.202;9.876;2023-01-16T04:19:14;98662.91;;;3.80;100.00
19676;BME280;39539;52.202;9.876;2023-01-16T04:21:45;98661.31;;;3.79;100.00
19676;BME280;39539;52.202;9.876;2023-01-16T04:24:11;98663.28;;;3.84;100.00
19676;BME280;39539;52.202;9.876;2023-01-16T04:26:36;98656.84;;;3.80;100.00
19676;BME280;39539;52.202;9.876;2023-01-16T04:29:02;98649.06;;;3.67;100.00
19676;BME280;39539;52.202;9.876;2023-01-16T04:31:27;98644.84;;;3.59;100.00
19676;BME280;39539;52.202;9.876;2023-01-16T04:33:54;98638.00;;;3.58;100.00
19676;BME280;39539;52.202;9.876;2023-01-16T04:36:19;98637.38;;;3.63;100.00
19676;BME280;39539;52.202;9.876;2023-01-16T04:38:44;98629.50;;;3.56;100.00
19676;BME280;39539;52.202;9.876;2023-01-16T04:41:10;98629.16;;;3.52;100.00
19676;BME280;39539;52.202;9.876;2023-01-16T04:43:35;98620.34;;;3.40;100.00
19676;BME280;39539;52.202;9.876;2023-01-16T04:46:01;98632.44;;;3.41;100.00
19676;BME280;39539;52.202;9.876;2023-01-16T04:48:26;98608.00;;;3.41;100.00
19676;BME280;39539;52.202;9.876;2023-01-16T04:50:51;98607.94;;;3.47;100.00
19676;BME280;39539;52.202;9.876;2023-01-16T04:53:17;98606.13;;;3.48;100.00
19676;BME280;39539;52.202;9.876;2023-01-16T04:55:42;98610.13;;;3.57;100.00
19676;BME280;39539;52.202;9.876;2023-01-16T04:58:07;98599.88;;;3.49;100.00
19676;BME280;39539;52.202;9.876;2023-01-16T05:00:33;98599.91;;;3.42;100.00
19676;BME280;39539;52.202;9.876;2023-01-16T05:02:58;98600.31;;;3.39;100.00
19676;BME280;39539;52.202;9.876;2023-01-16T05:05:24;98600.75;;;3.36;100.00
19676;BME280;39539;52.202;9.876;2023-01-16T05:07:49;98574.16;;;3.26;100.00
19676;BME280;39539;52.202;9.876;2023-01-16T05:10:35;98584.81;;;3.31;100.00
19676;BME280;39539;52.202;9.876;2023-01-16T05:13:00;98581.63;;;3.29;100.00
19676;BME280;39539;52.202;9.876;2023-01-16T05:15:25;98578.44;;;3.20;100.00
19676;BME280;39539;52.202;9.876;2023-01-16T05:17:50;98583.75;;;3.07;100.00
19676;BME280;39539;52.202;9.876;2023-01-16T05:20:16;98586.16;;;3.08;100.00
19676;BME280;39539;52.202;9.876;2023-01-16T05:22:41;98579.78;;;2.98;100.00
19676;BME280;39539;52.202;9.876;2023-01-16T05:25:08;98581.78;;;2.96;100.00
19676;BME280;39539;52.202;9.876;2023-01-16T05:27:33;98584.19;;;2.97;100.00
19676;BME280;39539;52.202;9.876;2023-01-16T05:29:58;98590.22;;;3.04;100.00
19676;BME280;39539;52.202;9.876;2023-01-16T05:32:27;98575.28;;;3.05;100.00
19676;BME280;39539;52.202;9.876;2023-01-16T05:34:53;98568.06;;;3.00;100.00
19676;BME280;39539;52.202;9.876;2023-01-16T05:37:19;98567.97;;;3.13;100.00
19676;BME280;39539;52.202;9.876;2023-01-16T05:39:44;98564.50;;;3.20;100.00
19676;BME280;39539;52.202;9.876;2023-01-16T05:42:11;98556.38;;;3.28;100.00
19676;BME280;39539;52.202;9.876;2023-01-16T05:44:49;98560.09;;;3.45;100.00
19676;BME280;39539;52.202;9.876;2023-01-16T05:47:15;98583.75;;;3.70;100.00
19676;BME280;39539;52.202;9.876;2023-01-16T05:49:41;98567.72;;;3.78;100.00
19676;BME280;39539;52.202;9.876;2023-01-16T05:52:06;98570.63;;;3.70;100.00
19676;BME280;39539;52.202;9.876;2023-01-16T05:54:31;98548.69;;;3.58;100.00
19676;BME280;39539;52.202;9.876;2023-01-16T05:56:58;98560.97;;;3.64;100.00
19676;BME280;39539;52.202;9.876;2023-01-16T05:59:23;98557.38;;;3.58;100.00
19676;BME280;39539;52.202;9.876;2023-01-16T06:01:48;98552.38;;;3.50;100.00
19676;BME280;39539;52.202;9.876;2023-01-16T06:04:14;98557.19;;;3.53;100.00
19676;BME280;39539;52.202;9.876;2023-01-16T06:06:39;98537.03;;;3.54;100.00
19676;BME280;39539;52.202;9.876;2023-01-16T06:09:06;98541.88;;;3.50;100.00
19676;BME280;39539;52.202;9.876;2023-01-16T06:11:32;98536.06;;;3.48;100.00
19676;BME280;39539;52.202;9.876;2023-01-16T06:13:57;98531.06;;;3.40;100.00
19676;BME280;39539;52.202;9.876;2023-01-16T06:16:29;98530.88;;;3.35;100.00
19676;BME280;39539;52.202;9.876;2023-01-16T06:18:54;98522.41;;;3.33;100.00
19676;BME280;39539;52.202;9.876;2023-01-16T06:21:20;98525.22;;;3.38;100.00
19676;BME280;39539;52.202;9.876;2023-01-16T06:23:47;98522.56;;;3.38;100.00
19676;BME280;39539;52.202;9.876;2023-01-16T06:26:13;98511.38;;;3.49;100.00
19676;BME280;39539;52.202;9.876;2023-01-16T06:28:40;98501.31;;;3.46;100.00
19676;BME280;39539;52.202;9.876;2023-01-16T06:31:05;98500.28;;;3.47;100.00
19676;BME280;39539;52.202;9.876;2023-01-16T06:33:31;98505.28;;;3.55;100.00
19676;BME280;39539;52.202;9.876;2023-01-16T06:35:57;98493.72;;;3.56;100.00
19676;BME280;39539;52.202;9.876;2023-01-16T06:38:23;98482.13;;;3.46;100.00
19676;BME280;39539;52.202;9.876;2023-01-16T06:40:48;98473.72;;;3.37;100.00
19676;BME280;39539;52.202;9.876;2023-01-16T06:43:14;98478.16;;;3.36;100.00
19676;BME280;39539;52.202;9.876;2023-01-16T06:45:42;98470.53;;;3.28;100.00
19676;BME280;39539;52.202;9.876;2023-01-16T06:48:09;98465.97;;;3.42;100.00
19676;BME280;39539;52.202;9.876;2023-01-16T06:50:34;98455.03;;;3.45;100.00
19676;BME280;39539;52.202;9.876;2023-01-16T06:53:00;98457.03;;;3.50;100.00
19676;BME280;39539;52.202;9.876;2023-01-16T06:55:26;98456.72;;;3.40;100.00
19676;BME280;39539;52.202;9.876;2023-01-16T06:57:51;98450.97;;;3.49;100.00
19676;BME280;39539;52.202;9.876;2023-01-16T07:00:18;98448.00;;;3.46;100.00
19676;BME280;39539;52.202;9.876;2023-01-16T07:02:50;98455.81;;;3.52;100.00
19676;BME280;39539;52.202;9.876;2023-01-16T07:05:16;98451.63;;;3.45;100.00
19676;BME280;39539;52.202;9.876;2023-01-16T07:07:41;98449.06;;;3.38;100.00
19676;BME280;39539;52.202;9.876;2023-01-16T07:10:07;98451.09;;;3.36;100.00
19676;BME280;39539;52.202;9.876;2023-01-16T07:12:33;98445.09;;;3.29;100.00
19676;BME280;39539;52.202;9.876;2023-01-16T07:15:00;98443.53;;;3.46;100.00
19676;BME280;39539;52.202;9.876;2023-01-16T07:17:44;98437.22;;;3.54;100.00
19676;BME280;39539;52.202;9.876;2023-01-16T07:20:28;98427.75;;;3.71;100.00
19676;BME280;39539;52.202;9.876;2023-01-16T07:23:20;98430.13;;;3.73;100.00
19676;BME280;39539;52.202;9.876;2023-01-16T07:25:47;98425.91;;;3.72;100.00
19676;BME280;39539;52.202;9.876;2023-01-16T07:28:16;98417.28;;;3.65;100.00
19676;BME280;39539;52.202;9.876;2023-01-16T07:30:43;98420.06;;;3.70;100.00
19676;BME280;39539;52.202;9.876;2023-01-16T07:33:09;98408.97;;;3.68;100.00
19676;BME280;39539;52.202;9.876;2023-01-16T07:35:35;98409.28;;;3.59;100.00
19676;BME280;39539;52.202;9.876;2023-01-16T07:38:04;98392.50;;;3.60;100.00
19676;BME280;39539;52.202;9.876;2023-01-16T07:40:30;98383.81;;;3.60;100.00
19676;BME280;39539;52.202;9.876;2023-01-16T07:43:08;98381.38;;;3.58;100.00
19676;BME280;39539;52.202;9.876;2023-01-16T07:45:35;98369.06;;;3.59;100.00
19676;BME280;39539;52.202;9.876;2023-01-16T07:48:00;98380.94;;;3.62;100.00
19676;BME280;39539;52.202;9.876;2023-01-16T07:50:29;98357.59;;;3.53;100.00
19676;BME280;39539;52.202;9.876;2023-01-16T07:52:54;98373.59;;;3.70;100.00
19676;BME280;39539;52.202;9.876;2023-01-16T07:55:40;98370.75;;;3.72;100.00
19676;BME280;39539;52.202;9.876;2023-01-16T07:58:25;98372.50;;;3.78;100.00
19676;BME280;39539;52.202;9.876;2023-01-16T08:00:54;98373.25;;;3.85;100.00
19676;BME280;39539;52.202;9.876;2023-01-16T08:06:23;98354.06;;;4.15;100.00
19676;BME280;39539;52.202;9.876;2023-01-16T08:08:54;98349.91;;;4.37;100.00
19676;BME280;39539;52.202;9.876;2023-01-16T08:11:25;98349.00;;;4.43;100.00
19676;BME280;39539;52.202;9.876;2023-01-16T08:14:13;98343.56;;;4.57;100.00
19676;BME280;39539;52.202;9.876;2023-01-16T08:16:40;98333.97;;;4.62;100.00
19676;BME280;39539;52.202;9.876;2023-01-16T08:19:05;98335.69;;;4.80;100.00
19676;BME280;39539;52.202;9.876;2023-01-16T08:21:31;98330.69;;;5.14;100.00
19676;BME280;39539;52.202;9.876;2023-01-16T08:23:56;98321.97;;;5.37;100.00
19676;BME280;39539;52.202;9.876;2023-01-16T08:26:23;98327.66;;;5.57;98.92
19676;BME280;39539;52.202;9.876;2023-01-16T08:28:49;98308.53;;;5.62;97.74
19676;BME280;39539;52.202;9.876;2023-01-16T08:31:16;98289.63;;;5.65;97.08
19676;BME280;39539;52.202;9.876;2023-01-16T08:33:43;98292.00;;;5.78;96.35
19676;BME280;39539;52.202;9.876;2023-01-16T08:36:11;98277.06;;;5.84;96.84
19676;BME280;39539;52.202;9.876;2023-01-16T08:38:37;98262.72;;;5.92;96.83
19676;BME280;39539;52.202;9.876;2023-01-16T08:41:04;98263.72;;;6.02;94.93
19676;BME280;39539;52.202;9.876;2023-01-16T08:43:30;98248.25;;;6.06;94.96
19676;BME280;39539;52.202;9.876;2023-01-16T08:46:22;98235.06;;;6.23;93.33
19676;BME280;39539;52.202;9.876;2023-01-16T08:49:12;98241.22;;;6.45;92.02
19676;BME280;39539;52.202;9.876;2023-01-16T08:51:58;98238.75;;;6.56;90.92
19676;BME280;39539;52.202;9.876;2023-01-16T08:54:25;98235.47;;;6.48;91.33
19676;BME280;39539;52.202;9.876;2023-01-16T08:56:51;98227.00;;;6.63;91.46
19676;BME280;39539;52.202;9.876;2023-01-16T08:59:16;98220.56;;;6.76;89.54
19676;BME280;39539;52.202;9.876;2023-01-16T09:01:47;98223.44;;;7.35;87.08
19676;BME280;39539;52.202;9.876;2023-01-16T09:04:12;98209.50;;;7.40;86.56
19676;BME280;39539;52.202;9.876;2023-01-16T09:06:38;98211.00;;;7.58;84.82
19676;BME280;39539;52.202;9.876;2023-01-16T09:09:06;98194.00;;;7.49;84.20
19676;BME280;39539;52.202;9.876;2023-01-16T09:11:32;98184.56;;;7.58;82.70
19676;BME280;39539;52.202;9.876;2023-01-16T09:14:17;98177.75;;;7.89;81.21
19676;BME280;39539;52.202;9.876;2023-01-16T09:16:42;98167.59;;;7.76;81.51
19676;BME280;39539;52.202;9.876;2023-01-16T09:19:07;98165.06;;;7.64;82.51
19676;BME280;39539;52.202;9.876;2023-01-16T09:21:33;98139.16;;;7.12;84.92
19676;BME280;39539;52.202;9.876;2023-01-16T09:23:58;98137.16;;;6.97;87.36
19676;BME280;39539;52.202;9.876;2023-01-16T09:26:24;98146.66;;;6.98;88.38
19676;BME280;39539;52.202;9.876;2023-01-16T09:28:50;98125.72;;;6.69;87.42
19676;BME280;39539;52.202;9.876;2023-01-16T09:31:16;98118.72;;;6.41;88.46
19676;BME280;39539;52.202;9.876;2023-01-16T09:33:41;98123.91;;;6.53;88.60
19676;BME280;39539;52.202;9.876;2023-01-16T09:36:07;98124.16;;;6.51;89.56
19676;BME280;39539;52.202;9.876;2023-01-16T09:38:33;98108.91;;;6.37;90.19
19676;BME280;39539;52.202;9.876;2023-01-16T09:40:59;98107.81;;;6.33;91.16
19676;BME280;39539;52.202;9.876;2023-01-16T09:46:08;98105.19;;;6.55;90.30
19676;BME280;39539;52.202;9.876;2023-01-16T09:51:14;98086.13;;;6.91;88.04
19676;BME280;39539;52.202;9.876;2023-01-16T09:56:37;98067.28;;;6.83;85.22
19676;BME280;39539;52.202;9.876;2023-01-16T09:59:43;98067.28;;;6.83;85.68
19676;BME280;39539;52.202;9.876;2023-01-16T10:02:31;98051.50;;;6.66;86.43
19676;BME280;39539;52.202;9.876;2023-01-16T10:04:59;98051.25;;;6.67;86.71
19676;BME280;39539;52.202;9.876;2023-01-16T10:07:47;98036.31;;;6.56;87.22
19676;BME280;39539;52.202;9.876;2023-01-16T10:13:05;98010.94;;;6.50;87.69
19676;BME280;39539;52.202;9.876;2023-01-16T10:16:05;98000.44;;;6.55;87.09
19676;BME280;39539;52.202;9.876;2023-01-16T10:18:53;97995.38;;;6.53;86.21
19676;BME280;39539;52.202;9.876;2023-01-16T10:27:32;97971.91;;;6.79;86.55
19676;BME280;39539;52.202;9.876;2023-01-16T10:30:21;97946.16;;;6.91;84.19
19676;BME280;39539;52.202;9.876;2023-01-16T10:35:37;97920.72;;;6.53;84.38
19676;BME280;39539;52.202;9.876;2023-01-16T10:41:02;97900.41;;;6.53;83.30
19676;BME280;39539;52.202;9.876;2023-01-16T10:43:48;97904.38;;;6.56;85.05
19676;BME280;39539;52.202;9.876;2023-01-16T10:46:34;97896.31;;;6.41;85.54
19676;BME280;39539;52.202;9.876;2023-01-16T10:49:18;97900.47;;;6.37;85.04
19676;BME280;39539;52.202;9.876;2023-01-16T10:51:57;97887.25;;;6.32;84.61
19676;BME280;39539;52.202;9.876;2023-01-16T10:54:23;97879.59;;;6.30;84.71
19676;BME280;39539;52.202;9.876;2023-01-16T10:56:49;97858.28;;;6.10;85.01
19676;BME280;39539;52.202;9.876;2023-01-16T10:59:15;97857.97;;;6.06;86.44
19676;BME280;39539;52.202;9.876;2023-01-16T11:01:41;97844.97;;;5.99;86.55
19676;BME280;39539;52.202;9.876;2023-01-16T11:04:10;97837.72;;;5.90;86.49
19676;BME280;39539;52.202;9.876;2023-01-16T11:06:36;97832.09;;;6.03;86.18
19676;BME280;39539;52.202;9.876;2023-01-16T11:09:27;97825.34;;;6.12;85.99
19676;BME280;39539;52.202;9.876;2023-01-16T11:11:54;97811.66;;;6.15;84.56
19676;BME280;39539;52.202;9.876;2023-01-16T11:14:40;97808.03;;;6.21;84.72
19676;BME280;39539;52.202;9.876;2023-01-16T11:17:32;97792.31;;;6.32;82.40
19676;BME280;39539;52.202;9.876;2023-01-16T11:20:29;97765.31;;;6.24;83.41
19676;BME280;39539;52.202;9.876;2023-01-16T11:22:57;97770.59;;;6.24;83.04
19676;BME280;39539;52.202;9.876;2023-01-16T11:25:24;97758.47;;;6.23;81.44
19676;BME280;39539;52.202;9.876;2023-01-16T11:27:51;97738.84;;;6.14;81.92
19676;BME280;39539;52.202;9.876;2023-01-16T11:30:27;97741.38;;;6.31;83.39
19676;BME280;39539;52.202;9.876;2023-01-16T11:32:53;97733.16;;;6.27;82.03
19676;BME280;39539;52.202;9.876;2023-01-16T11:35:35;97730.03;;;6.30;80.55
19676;BME280;39539;52.202;9.876;2023-01-16T11:38:02;97713.69;;;6.28;82.22
19676;BME280;39539;52.202;9.876;2023-01-16T11:40:36;97712.16;;;6.38;82.34
19676;BME280;39539;52.202;9.876;2023-01-16T11:43:08;97702.72;;;6.47;81.54
19676;BME280;39539;52.202;9.876;2023-01-16T11:45:56;97703.56;;;6.52;80.70
19676;BME280;39539;52.202;9.876;2023-01-16T11:48:28;97694.81;;;6.47;80.40
19676;BME280;39539;52.202;9.876;2023-01-16T11:50:57;97702.69;;;6.42;80.33
19676;BME280;39539;52.202;9.876;2023-01-16T11:53:29;97670.97;;;6.32;80.39
19676;BME280;39539;52.202;9.876;2023-01-16T12:04:23;97642.34;;;6.56;80.62
19676;BME280;39539;52.202;9.876;2023-01-16T12:06:52;97650.06;;;6.67;79.81
19676;BME280;39539;52.202;9.876;2023-01-16T12:12:26;97619.38;;;6.56;80.47
19676;BME280;39539;52.202;9.876;2023-01-16T12:18:04;97608.38;;;6.69;80.89
19676;BME280;39539;52.202;9.876;2023-01-16T12:20:48;97598.06;;;6.63;80.84
19676;BME280;39539;52.202;9.876;2023-01-16T12:26:17;97588.28;;;6.63;82.21
19676;BME280;39539;52.202;9.876;2023-01-16T12:40:37;97539.50;;;6.66;83.38
19676;BME280;39539;52.202;9.876;2023-01-16T12:45:56;97528.66;;;6.67;83.54
19676;BME280;39539;52.202;9.876;2023-01-16T12:48:30;97529.25;;;6.80;81.85
19676;BME280;39539;52.202;9.876;2023-01-16T13:01:42;97492.78;;;6.82;81.92
19676;BME280;39539;52.202;9.876;2023-01-16T13:04:24;97497.31;;;6.91;80.93
19676;BME280;39539;52.202;9.876;2023-01-16T13:06:59;97497.59;;;7.00;81.11
19676;BME280;39539;52.202;9.876;2023-01-16T13:12:43;97483.34;;;7.27;80.15
19676;BME280;39539;52.202;9.876;2023-01-16T13:15:39;97478.34;;;7.15;79.58
19676;BME280;39539;52.202;9.876;2023-01-16T13:18:19;97485.72;;;7.03;79.56
19676;BME280;39539;52.202;9.876;2023-01-16T13:20:52;97472.25;;;6.94;80.75
19676;BME280;39539;52.202;9.876;2023-01-16T13:23:24;97468.50;;;6.85;81.69
19676;BME280;39539;52.202;9.876;2023-01-16T13:25:56;97476.97;;;6.77;81.81
19676;BME280;39539;52.202;9.876;2023-01-16T13:31:24;97471.59;;;6.46;82.94
19676;BME280;39539;52.202;9.876;2023-01-16T13:33:57;97467.38;;;6.45;82.88
19676;BME280;39539;52.202;9.876;2023-01-16T13:37:41;97462.88;;;6.45;83.44
19676;BME280;39539;52.202;9.876;2023-01-16T13:42:08;97459.97;;;6.32;84.21
19676;BME280;39539;52.202;9.876;2023-01-16T13:44:38;97454.44;;;6.38;83.87
19676;BME280;39539;52.202;9.876;2023-01-16T13:47:27;97457.03;;;6.33;83.45
19676;BME280;39539;52.202;9.876;2023-01-16T13:50:23;97440.16;;;6.29;82.88
19676;BME280;39539;52.202;9.876;2023-01-16T13:52:46;97452.84;;;6.37;83.09
19676;BME280;39539;52.202;9.876;2023-01-16T13:55:41;97457.59;;;6.40;83.09
19676;BME280;39539;52.202;9.876;2023-01-16T13:58:22;97452.59;;;6.44;83.10
19676;BME280;39539;52.202;9.876;2023-01-16T14:01:00;97446.50;;;6.33;83.31
19676;BME280;39539;52.202;9.876;2023-01-16T14:03:28;97440.91;;;6.19;83.85
19676;BME280;39539;52.202;9.876;2023-01-16T14:06:16;97438.50;;;6.07;85.74
19676;BME280;39539;52.202;9.876;2023-01-16T14:11:37;97432.81;;;5.83;87.78
19676;BME280;39539;52.202;9.876;2023-01-16T14:17:59;97437.47;;;5.71;89.46
19676;BME280;39539;52.202;9.876;2023-01-16T14:23:03;97433.78;;;5.67;90.58
19676;BME280;39539;52.202;9.876;2023-01-16T14:25:55;97434.03;;;5.60;90.45
19676;BME280;39539;52.202;9.876;2023-01-16T14:28:21;97434.78;;;5.56;90.60
19676;BME280;39539;52.202;9.876;2023-01-16T14:30:47;97430.41;;;5.34;91.55
19676;BME280;39539;52.202;9.876;2023-01-16T14:33:16;97442.09;;;5.49;90.93
19676;BME280;39539;52.202;9.876;2023-01-16T14:35:50;97428.09;;;5.43;91.84
19676;BME280;39539;52.202;9.876;2023-01-16T14:38:19;97442.59;;;5.46;92.37
19676;BME280;39539;52.202;9.876;2023-01-16T14:41:00;97433.00;;;5.29;93.15
19676;BME280;39539;52.202;9.876;2023-01-16T14:44:21;97447.50;;;5.32;92.21
19676;BME280;39539;52.202;9.876;2023-01-16T14:50:15;97427.44;;;5.26;92.95
19676;BME280;39539;52.202;9.876;2023-01-16T14:53:13;97428.72;;;5.18;93.09
19676;BME280;39539;52.202;9.876;2023-01-16T14:56:19;97436.31;;;5.14;92.62
19676;BME280;39539;52.202;9.876;2023-01-16T14:58:53;97425.78;;;5.14;92.99
19676;BME280;39539;52.202;9.876;2023-01-16T15:01:32;97417.66;;;5.16;92.64
19676;BME280;39539;52.202;9.876;2023-01-16T15:04:22;97415.56;;;5.18;93.05
19676;BME280;39539;52.202;9.876;2023-01-16T15:06:57;97421.88;;;5.17;92.54
19676;BME280;39539;52.202;9.876;2023-01-16T15:09:28;97409.22;;;5.14;92.80
19676;BME280;39539;52.202;9.876;2023-01-16T15:12:01;97400.75;;;5.12;92.90
19676;BME280;39539;52.202;9.876;2023-01-16T15:14:27;97404.94;;;5.08;93.09
19676;BME280;39539;52.202;9.876;2023-01-16T15:22:53;97369.03;;;4.91;94.06
19676;BME280;39539;52.202;9.876;2023-01-16T15:30:30;97366.28;;;4.76;94.86
19676;BME280;39539;52.202;9.876;2023-01-16T15:32:58;97360.72;;;4.72;96.32
19676;BME280;39539;52.202;9.876;2023-01-16T15:35:54;97346.25;;;4.70;96.45
19676;BME280;39539;52.202;9.876;2023-01-16T15:38:20;97353.59;;;4.68;97.06
19676;BME280;39539;52.202;9.876;2023-01-16T15:40:52;97343.81;;;4.63;97.81
19676;BME280;39539;52.202;9.876;2023-01-16T15:43:20;97345.09;;;4.61;97.54
19676;BME280;39539;52.202;9.876;2023-01-16T15:46:18;97334.84;;;4.59;97.76
19676;BME280;39539;52.202;9.876;2023-01-16T15:51:26;97329.78;;;4.53;97.08
19676;BME280;39539;52.202;9.876;2023-01-16T15:53:55;97335.25;;;4.46;97.29
19676;BME280;39539;52.202;9.876;2023-01-16T15:56:32;97322.84;;;4.41;97.03